sensor_id;sensor_type;location;lat;lon;timestamp;P1;durP1;ratioP1;P2;durP2;ratioP2
13708;SDS011;54933;51.908;7.730;2023-02-01T00:02:01;0.83;;;0.83;;
13708;SDS011;54933;51.908;7.730;2023-02-01T00:04:27;0.43;;;0.43;;
13708;SDS011;54933;51.908;7.730;2023-02-01T00:06:52;1.53;;;0.50;;
13708;SDS011;54933;51.908;7.730;2023-02-01T00:09:18;0.63;;;0.40;;
13708;SDS011;54933;51.908;7.730;2023-02-01T00:11:43;0.97;;;0.70;;
13708;SDS011;54933;51.908;7.730;2023-02-01T00:14:08;1.23;;;0.53;;
13708;SDS011;54933;51.908;7.730;2023-02-01T00:16:34;0.83;;;0.63;;
13708;SDS011;54933;51.908;7.730;2023-02-01T00:19:01;1.33;;;0.80;;
13708;SDS011;54933;51.908;7.730;2023-02-01T00:21:31;1.43;;;0.60;;
13708;SDS011;54933;51.908;7.730;2023-02-01T00:23:56;0.63;;;0.60;;
13708;SDS011;54933;51.908;7.730;2023-02-01T00:28:50;0.60;;;0.60;;
13708;SDS011;54933;51.908;7.730;2023-02-01T00:31:15;0.60;;;0.60;;
13708;SDS011;54933;51.908;7.730;2023-02-01T00:33:40;0.60;;;0.60;;
13708;SDS011;54933;51.908;7.730;2023-02-01T00:36:06;2.30;;;0.53;;
13708;SDS011;54933;51.908;7.730;2023-02-01T00:38:33;1.07;;;0.73;;
13708;SDS011;54933;51.908;7.730;2023-02-01T00:41:02;0.40;;;0.40;;
13708;SDS011;54933;51.908;7.730;2023-02-01T00:43:28;0.60;;;0.60;;
13708;SDS011;54933;51.908;7.730;2023-02-01T00:45:55;0.80;;;0.50;;
13708;SDS011;54933;51.908;7.730;2023-02-01T00:48:20;0.90;;;0.60;;
13708;SDS011;54933;51.908;7.730;2023-02-01T00:50:46;0.70;;;0.70;;
13708;SDS011;54933;51.908;7.730;2023-02-01T00:53:11;0.77;;;0.63;;
13708;SDS011;54933;51.908;7.730;2023-02-01T00:55:36;1.57;;;0.70;;
13708;SDS011;54933;51.908;7.730;2023-02-01T00:58:02;2.50;;;0.80;;
13708;SDS011;54933;51.908;7.730;2023-02-01T01:00:31;2.63;;;1.40;;
13708;SDS011;54933;51.908;7.730;2023-02-01T01:02:59;0.70;;;0.50;;
13708;SDS011;54933;51.908;7.730;2023-02-01T01:05:24;1.30;;;0.60;;
13708;SDS011;54933;51.908;7.730;2023-02-01T01:07:52;0.50;;;0.50;;
13708;SDS011;54933;51.908;7.730;2023-02-01T01:10:17;2.90;;;0.87;;
13708;SDS011;54933;51.908;7.730;2023-02-01T01:12:43;1.00;;;0.53;;
13708;SDS011;54933;51.908;7.730;2023-02-01T01:15:08;1.10;;;0.60;;
13708;SDS011;54933;51.908;7.730;2023-02-01T01:17:34;1.33;;;0.67;;
13708;SDS011;54933;51.908;7.730;2023-02-01T01:19:59;1.40;;;0.70;;
13708;SDS011;54933;51.908;7.730;2023-02-01T01:22:24;1.17;;;0.70;;
13708;SDS011;54933;51.908;7.730;2023-02-01T01:24:49;0.50;;;0.50;;
13708;SDS011;54933;51.908;7.730;2023-02-01T01:27:15;0.57;;;0.57;;
13708;SDS011;54933;51.908;7.730;2023-02-01T01:29:40;1.73;;;0.53;;
13708;SDS011;54933;51.908;7.730;2023-02-01T01:32:05;0.67;;;0.50;;
13708;SDS011;54933;51.908;7.730;2023-02-01T01:34:30;0.77;;;0.40;;
13708;SDS011;54933;51.908;7.730;2023-02-01T01:36:56;0.57;;;0.50;;
13708;SDS011;54933;51.908;7.730;2023-02-01T01:39:21;1.07;;;0.60;;
13708;SDS011;54933;51.908;7.730;2023-02-01T01:41:46;0.73;;;0.43;;
13708;SDS011;54933;51.908;7.730;2023-02-01T01:47:14;0.57;;;0.57;;
13708;SDS011;54933;51.908;7.730;2023-02-01T01:49:41;0.80;;;0.80;;
13708;SDS011;54933;51.908;7.730;2023-02-01T01:52:07;1.30;;;0.77;;
13708;SDS011;54933;51.908;7.730;2023-02-01T01:54:34;0.90;;;0.70;;
13708;SDS011;54933;51.908;7.730;2023-02-01T01:57:09;0.57;;;0.50;;
13708;SDS011;54933;51.908;7.730;2023-02-01T01:59:50;1.80;;;0.50;;
13708;SDS011;54933;51.908;7.730;2023-02-01T02:02:21;1.23;;;0.80;;
13708;SDS011;54933;51.908;7.730;2023-02-01T02:04:46;1.03;;;0.57;;
13708;SDS011;54933;51.908;7.730;2023-02-01T02:07:20;0.90;;;0.70;;
13708;SDS011;54933;51.908;7.730;2023-02-01T02:09:48;0.63;;;0.60;;
13708;SDS011;54933;51.908;7.730;2023-02-01T02:12:13;1.63;;;0.70;;
13708;SDS011;54933;51.908;7.730;2023-02-01T02:14:38;1.13;;;0.70;;
13708;SDS011;54933;51.908;7.730;2023-02-01T02:22:40;0.30;;;0.30;;
13708;SDS011;54933;51.908;7.730;2023-02-01T02:33:51;0.70;;;0.50;;
13708;SDS011;54933;51.908;7.730;2023-02-01T02:36:37;1.13;;;0.70;;
13708;SDS011;54933;51.908;7.730;2023-02-01T02:39:19;0.47;;;0.47;;
13708;SDS011;54933;51.908;7.730;2023-02-01T02:42:04;0.70;;;0.50;;
13708;SDS011;54933;51.908;7.730;2023-02-01T02:45:07;0.67;;;0.50;;
13708;SDS011;54933;51.908;7.730;2023-02-01T02:48:08;0.87;;;0.70;;
13708;SDS011;54933;51.908;7.730;2023-02-01T02:50:49;0.80;;;0.60;;
13708;SDS011;54933;51.908;7.730;2023-02-01T02:53:44;0.97;;;0.80;;
13708;SDS011;54933;51.908;7.730;2023-02-01T02:56:35;0.77;;;0.50;;
13708;SDS011;54933;51.908;7.730;2023-02-01T02:59:21;0.70;;;0.50;;
13708;SDS011;54933;51.908;7.730;2023-02-01T03:02:08;0.47;;;0.47;;
13708;SDS011;54933;51.908;7.730;2023-02-01T03:04:54;1.70;;;0.90;;
13708;SDS011;54933;51.908;7.730;2023-02-01T03:13:58;0.77;;;0.47;;
13708;SDS011;54933;51.908;7.730;2023-02-01T03:21:35;0.63;;;0.40;;
13708;SDS011;54933;51.908;7.730;2023-02-01T03:24:12;1.00;;;0.57;;
13708;SDS011;54933;51.908;7.730;2023-02-01T03:26:43;1.30;;;0.80;;
13708;SDS011;54933;51.908;7.730;2023-02-01T03:29:17;1.60;;;0.87;;
13708;SDS011;54933;51.908;7.730;2023-02-01T03:31:46;0.67;;;0.50;;
13708;SDS011;54933;51.908;7.730;2023-02-01T03:34:11;0.50;;;0.50;;
13708;SDS011;54933;51.908;7.730;2023-02-01T03:36:43;0.73;;;0.50;;
13708;SDS011;54933;51.908;7.730;2023-02-01T03:39:18;0.80;;;0.60;;
13708;SDS011;54933;51.908;7.730;2023-02-01T03:41:49;0.40;;;0.40;;
13708;SDS011;54933;51.908;7.730;2023-02-01T03:47:21;0.77;;;0.60;;
13708;SDS011;54933;51.908;7.730;2023-02-01T03:49:55;0.67;;;0.50;;
13708;SDS011;54933;51.908;7.730;2023-02-01T03:52:46;1.17;;;0.53;;
13708;SDS011;54933;51.908;7.730;2023-02-01T03:55:16;1.17;;;0.80;;
13708;SDS011;54933;51.908;7.730;2023-02-01T03:57:46;0.60;;;0.60;;
13708;SDS011;54933;51.908;7.730;2023-02-01T04:00:19;1.13;;;0.60;;
13708;SDS011;54933;51.908;7.730;2023-02-01T04:02:47;0.63;;;0.60;;
13708;SDS011;54933;51.908;7.730;2023-02-01T04:05:13;1.27;;;0.70;;
13708;SDS011;54933;51.908;7.730;2023-02-01T04:07:39;0.90;;;0.50;;
13708;SDS011;54933;51.908;7.730;2023-02-01T04:10:04;2.00;;;0.70;;
13708;SDS011;54933;51.908;7.730;2023-02-01T04:12:30;0.40;;;0.40;;
13708;SDS011;54933;51.908;7.730;2023-02-01T04:14:55;0.57;;;0.57;;
13708;SDS011;54933;51.908;7.730;2023-02-01T04:17:20;0.87;;;0.60;;
13708;SDS011;54933;51.908;7.730;2023-02-01T04:19:46;1.93;;;0.70;;
13708;SDS011;54933;51.908;7.730;2023-02-01T04:22:11;0.50;;;0.50;;
13708;SDS011;54933;51.908;7.730;2023-02-01T04:24:37;0.70;;;0.60;;
13708;SDS011;54933;51.908;7.730;2023-02-01T04:27:02;0.67;;;0.50;;
13708;SDS011;54933;51.908;7.730;2023-02-01T04:29:27;0.60;;;0.60;;
13708;SDS011;54933;51.908;7.730;2023-02-01T04:31:53;1.80;;;0.70;;
13708;SDS011;54933;51.908;7.730;2023-02-01T04:34:18;0.33;;;0.33;;
13708;SDS011;54933;51.908;7.730;2023-02-01T04:36:43;2.00;;;0.70;;
13708;SDS011;54933;51.908;7.730;2023-02-01T04:39:09;0.53;;;0.50;;
13708;SDS011;54933;51.908;7.730;2023-02-01T04:41:34;0.87;;;0.47;;
13708;SDS011;54933;51.908;7.730;2023-02-01T04:44:00;1.53;;;0.50;;
13708;SDS011;54933;51.908;7.730;2023-02-01T04:46:25;0.53;;;0.50;;
13708;SDS011;54933;51.908;7.730;2023-02-01T04:48:51;0.57;;;0.57;;
13708;SDS011;54933;51.908;7.730;2023-02-01T04:51:16;0.60;;;0.50;;
13708;SDS011;54933;51.908;7.730;2023-02-01T04:53:43;0.60;;;0.60;;
13708;SDS011;54933;51.908;7.730;2023-02-01T04:56:08;0.57;;;0.57;;
13708;SDS011;54933;51.908;7.730;2023-02-01T04:58:34;1.43;;;0.60;;
13708;SDS011;54933;51.908;7.730;2023-02-01T05:00:59;0.70;;;0.70;;
13708;SDS011;54933;51.908;7.730;2023-02-01T05:03:29;0.90;;;0.50;;
13708;SDS011;54933;51.908;7.730;2023-02-01T05:05:54;0.53;;;0.53;;
13708;SDS011;54933;51.908;7.730;2023-02-01T05:08:19;0.60;;;0.60;;
13708;SDS011;54933;51.908;7.730;2023-02-01T05:10:47;1.03;;;0.80;;
13708;SDS011;54933;51.908;7.730;2023-02-01T05:13:12;0.80;;;0.40;;
13708;SDS011;54933;51.908;7.730;2023-02-01T05:15:56;0.50;;;0.50;;
13708;SDS011;54933;51.908;7.730;2023-02-01T05:18:21;1.00;;;0.60;;
13708;SDS011;54933;51.908;7.730;2023-02-01T05:20:47;2.10;;;0.57;;
13708;SDS011;54933;51.908;7.730;2023-02-01T05:23:12;0.80;;;0.50;;
13708;SDS011;54933;51.908;7.730;2023-02-01T05:25:37;1.13;;;0.63;;
13708;SDS011;54933;51.908;7.730;2023-02-01T05:28:02;0.57;;;0.50;;
13708;SDS011;54933;51.908;7.730;2023-02-01T05:30:28;1.07;;;0.70;;
13708;SDS011;54933;51.908;7.730;2023-02-01T05:32:53;0.60;;;0.60;;
13708;SDS011;54933;51.908;7.730;2023-02-01T05:35:19;1.23;;;0.60;;
13708;SDS011;54933;51.908;7.730;2023-02-01T05:37:44;1.57;;;0.53;;
13708;SDS011;54933;51.908;7.730;2023-02-01T05:40:09;0.70;;;0.60;;
13708;SDS011;54933;51.908;7.730;2023-02-01T05:42:35;1.50;;;0.70;;
13708;SDS011;54933;51.908;7.730;2023-02-01T05:45:00;1.37;;;0.60;;
13708;SDS011;54933;51.908;7.730;2023-02-01T05:47:26;1.20;;;0.63;;
13708;SDS011;54933;51.908;7.730;2023-02-01T05:49:51;1.50;;;0.60;;
13708;SDS011;54933;51.908;7.730;2023-02-01T05:52:16;3.87;;;0.90;;
13708;SDS011;54933;51.908;7.730;2023-02-01T05:54:45;0.80;;;0.60;;
13708;SDS011;54933;51.908;7.730;2023-02-01T05:57:11;1.43;;;0.77;;
13708;SDS011;54933;51.908;7.730;2023-02-01T05:59:37;2.07;;;0.70;;
13708;SDS011;54933;51.908;7.730;2023-02-01T06:02:05;1.73;;;0.80;;
13708;SDS011;54933;51.908;7.730;2023-02-01T06:04:32;1.87;;;0.77;;
13708;SDS011;54933;51.908;7.730;2023-02-01T06:06:57;6.70;;;1.60;;
13708;SDS011;54933;51.908;7.730;2023-02-01T06:09:22;5.67;;;0.90;;
13708;SDS011;54933;51.908;7.730;2023-02-01T06:11:47;4.53;;;1.23;;
13708;SDS011;54933;51.908;7.730;2023-02-01T06:14:13;7.73;;;1.67;;
13708;SDS011;54933;51.908;7.730;2023-02-01T06:16:38;5.30;;;1.20;;
13708;SDS011;54933;51.908;7.730;2023-02-01T06:19:03;7.30;;;1.47;;
13708;SDS011;54933;51.908;7.730;2023-02-01T06:21:28;2.67;;;1.40;;
13708;SDS011;54933;51.908;7.730;2023-02-01T06:23:54;2.30;;;0.80;;
13708;SDS011;54933;51.908;7.730;2023-02-01T06:26:19;10.13;;;1.20;;
13708;SDS011;54933;51.908;7.730;2023-02-01T06:28:45;8.60;;;1.60;;
13708;SDS011;54933;51.908;7.730;2023-02-01T06:31:10;10.07;;;1.40;;
13708;SDS011;54933;51.908;7.730;2023-02-01T06:33:36;11.67;;;2.10;;
13708;SDS011;54933;51.908;7.730;2023-02-01T06:36:03;18.07;;;2.00;;
13708;SDS011;54933;51.908;7.730;2023-02-01T06:38:30;7.27;;;1.60;;
13708;SDS011;54933;51.908;7.730;2023-02-01T06:40:56;17.03;;;2.60;;
13708;SDS011;54933;51.908;7.730;2023-02-01T06:43:22;18.50;;;1.70;;
13708;SDS011;54933;51.908;7.730;2023-02-01T06:45:49;11.80;;;1.73;;
13708;SDS011;54933;51.908;7.730;2023-02-01T06:48:15;11.20;;;1.70;;
13708;SDS011;54933;51.908;7.730;2023-02-01T06:50:41;10.73;;;1.50;;
13708;SDS011;54933;51.908;7.730;2023-02-01T06:53:06;9.93;;;1.93;;
13708;SDS011;54933;51.908;7.730;2023-02-01T06:55:31;14.33;;;1.43;;
13708;SDS011;54933;51.908;7.730;2023-02-01T06:57:57;5.20;;;1.37;;
13708;SDS011;54933;51.908;7.730;2023-02-01T07:00:22;4.97;;;1.30;;
13708;SDS011;54933;51.908;7.730;2023-02-01T07:02:48;3.73;;;1.17;;
13708;SDS011;54933;51.908;7.730;2023-02-01T07:05:14;10.80;;;1.30;;
13708;SDS011;54933;51.908;7.730;2023-02-01T07:07:39;5.90;;;1.30;;
13708;SDS011;54933;51.908;7.730;2023-02-01T07:10:04;6.83;;;1.30;;
13708;SDS011;54933;51.908;7.730;2023-02-01T07:12:30;6.90;;;1.43;;
13708;SDS011;54933;51.908;7.730;2023-02-01T07:14:55;7.13;;;1.50;;
13708;SDS011;54933;51.908;7.730;2023-02-01T07:17:21;4.40;;;1.40;;
13708;SDS011;54933;51.908;7.730;2023-02-01T07:19:47;11.10;;;1.03;;
13708;SDS011;54933;51.908;7.730;2023-02-01T07:22:12;4.47;;;0.93;;
13708;SDS011;54933;51.908;7.730;2023-02-01T07:24:37;10.37;;;1.13;;
13708;SDS011;54933;51.908;7.730;2023-02-01T07:27:03;17.43;;;2.80;;
13708;SDS011;54933;51.908;7.730;2023-02-01T07:29:28;24.13;;;2.40;;
13708;SDS011;54933;51.908;7.730;2023-02-01T07:31:53;30.73;;;3.10;;
13708;SDS011;54933;51.908;7.730;2023-02-01T07:34:18;18.90;;;2.23;;
13708;SDS011;54933;51.908;7.730;2023-02-01T07:36:44;28.50;;;2.53;;
13708;SDS011;54933;51.908;7.730;2023-02-01T07:39:09;17.60;;;2.40;;
13708;SDS011;54933;51.908;7.730;2023-02-01T07:41:34;23.63;;;2.10;;
13708;SDS011;54933;51.908;7.730;2023-02-01T07:43:59;14.60;;;1.87;;
13708;SDS011;54933;51.908;7.730;2023-02-01T07:46:25;13.97;;;1.93;;
13708;SDS011;54933;51.908;7.730;2023-02-01T07:48:50;8.30;;;2.00;;
13708;SDS011;54933;51.908;7.730;2023-02-01T07:51:16;17.53;;;1.63;;
13708;SDS011;54933;51.908;7.730;2023-02-01T07:53:42;11.67;;;1.43;;
13708;SDS011;54933;51.908;7.730;2023-02-01T07:56:15;8.93;;;1.73;;
13708;SDS011;54933;51.908;7.730;2023-02-01T07:58:42;13.37;;;1.77;;
13708;SDS011;54933;51.908;7.730;2023-02-01T08:01:17;13.07;;;1.50;;
13708;SDS011;54933;51.908;7.730;2023-02-01T08:03:50;8.73;;;1.50;;
13708;SDS011;54933;51.908;7.730;2023-02-01T08:06:17;8.63;;;1.90;;
13708;SDS011;54933;51.908;7.730;2023-02-01T08:08:44;11.80;;;1.50;;
13708;SDS011;54933;51.908;7.730;2023-02-01T08:11:11;7.50;;;1.40;;
13708;SDS011;54933;51.908;7.730;2023-02-01T08:13:37;10.57;;;1.60;;
13708;SDS011;54933;51.908;7.730;2023-02-01T08:16:04;8.43;;;1.60;;
13708;SDS011;54933;51.908;7.730;2023-02-01T08:18:32;9.30;;;1.60;;
13708;SDS011;54933;51.908;7.730;2023-02-01T08:21:02;8.63;;;1.43;;
13708;SDS011;54933;51.908;7.730;2023-02-01T08:23:35;6.87;;;1.20;;
13708;SDS011;54933;51.908;7.730;2023-02-01T08:26:09;4.57;;;1.10;;
13708;SDS011;54933;51.908;7.730;2023-02-01T08:28:48;3.53;;;1.07;;
13708;SDS011;54933;51.908;7.730;2023-02-01T08:31:17;10.17;;;1.87;;
13708;SDS011;54933;51.908;7.730;2023-02-01T08:33:47;4.20;;;1.03;;
13708;SDS011;54933;51.908;7.730;2023-02-01T08:36:14;6.10;;;1.27;;
13708;SDS011;54933;51.908;7.730;2023-02-01T08:38:40;3.87;;;1.40;;
13708;SDS011;54933;51.908;7.730;2023-02-01T08:41:09;8.53;;;1.37;;
13708;SDS011;54933;51.908;7.730;2023-02-01T08:43:36;3.83;;;1.20;;
13708;SDS011;54933;51.908;7.730;2023-02-01T08:46:02;5.73;;;2.47;;
13708;SDS011;54933;51.908;7.730;2023-02-01T08:48:28;4.50;;;0.80;;
13708;SDS011;54933;51.908;7.730;2023-02-01T08:50:55;8.23;;;1.60;;
13708;SDS011;54933;51.908;7.730;2023-02-01T08:53:20;3.90;;;1.10;;
13708;SDS011;54933;51.908;7.730;2023-02-01T08:55:46;4.17;;;1.40;;
13708;SDS011;54933;51.908;7.730;2023-02-01T08:58:12;6.83;;;1.30;;
13708;SDS011;54933;51.908;7.730;2023-02-01T09:00:39;4.73;;;0.80;;
13708;SDS011;54933;51.908;7.730;2023-02-01T09:03:04;3.23;;;0.83;;
13708;SDS011;54933;51.908;7.730;2023-02-01T09:05:31;1.40;;;0.90;;
13708;SDS011;54933;51.908;7.730;2023-02-01T09:07:56;3.93;;;1.10;;
13708;SDS011;54933;51.908;7.730;2023-02-01T09:10:21;4.63;;;1.10;;
13708;SDS011;54933;51.908;7.730;2023-02-01T09:12:47;3.90;;;1.20;;
13708;SDS011;54933;51.908;7.730;2023-02-01T09:15:12;1.60;;;1.00;;
13708;SDS011;54933;51.908;7.730;2023-02-01T09:17:37;3.57;;;0.97;;
13708;SDS011;54933;51.908;7.730;2023-02-01T09:20:03;5.47;;;1.23;;
13708;SDS011;54933;51.908;7.730;2023-02-01T09:22:29;2.47;;;1.00;;
13708;SDS011;54933;51.908;7.730;2023-02-01T09:24:54;1.40;;;0.80;;
13708;SDS011;54933;51.908;7.730;2023-02-01T09:27:19;1.97;;;1.00;;
13708;SDS011;54933;51.908;7.730;2023-02-01T09:29:45;1.43;;;0.80;;
13708;SDS011;54933;51.908;7.730;2023-02-01T09:32:14;2.03;;;0.77;;
13708;SDS011;54933;51.908;7.730;2023-02-01T09:34:39;3.77;;;1.20;;
13708;SDS011;54933;51.908;7.730;2023-02-01T09:37:05;0.93;;;0.70;;
13708;SDS011;54933;51.908;7.730;2023-02-01T09:39:30;1.77;;;0.80;;
13708;SDS011;54933;51.908;7.730;2023-02-01T09:41:57;2.83;;;0.97;;
13708;SDS011;54933;51.908;7.730;2023-02-01T09:47:21;2.53;;;1.17;;
13708;SDS011;54933;51.908;7.730;2023-02-01T09:49:51;3.90;;;1.20;;
13708;SDS011;54933;51.908;7.730;2023-02-01T09:52:25;1.60;;;0.90;;
13708;SDS011;54933;51.908;7.730;2023-02-01T09:54:58;4.07;;;0.90;;
13708;SDS011;54933;51.908;7.730;2023-02-01T09:57:33;3.27;;;1.03;;
13708;SDS011;54933;51.908;7.730;2023-02-01T10:00:29;2.93;;;1.10;;
13708;SDS011;54933;51.908;7.730;2023-02-01T10:02:58;0.90;;;0.80;;
13708;SDS011;54933;51.908;7.730;2023-02-01T10:05:35;3.57;;;0.90;;
13708;SDS011;54933;51.908;7.730;2023-02-01T10:08:13;5.40;;;1.43;;
13708;SDS011;54933;51.908;7.730;2023-02-01T10:10:51;1.90;;;1.00;;
13708;SDS011;54933;51.908;7.730;2023-02-01T10:27:19;3.47;;;1.00;;
13708;SDS011;54933;51.908;7.730;2023-02-01T10:29:48;1.90;;;0.80;;
13708;SDS011;54933;51.908;7.730;2023-02-01T10:32:23;3.20;;;0.70;;
13708;SDS011;54933;51.908;7.730;2023-02-01T10:34:56;3.07;;;1.00;;
13708;SDS011;54933;51.908;7.730;2023-02-01T10:37:33;6.17;;;1.33;;
13708;SDS011;54933;51.908;7.730;2023-02-01T10:40:14;5.70;;;1.10;;
13708;SDS011;54933;51.908;7.730;2023-02-01T10:42:42;4.20;;;1.00;;
13708;SDS011;54933;51.908;7.730;2023-02-01T10:45:11;3.83;;;1.17;;
13708;SDS011;54933;51.908;7.730;2023-02-01T10:47:41;5.83;;;1.20;;
13708;SDS011;54933;51.908;7.730;2023-02-01T10:53:04;8.23;;;1.00;;
13708;SDS011;54933;51.908;7.730;2023-02-01T10:58:06;6.40;;;1.30;;
13708;SDS011;54933;51.908;7.730;2023-02-01T11:00:44;5.53;;;1.00;;
13708;SDS011;54933;51.908;7.730;2023-02-01T11:04:01;3.43;;;0.83;;
13708;SDS011;54933;51.908;7.730;2023-02-01T11:06:21;1.83;;;1.13;;
13708;SDS011;54933;51.908;7.730;2023-02-01T11:08:53;3.13;;;1.10;;
13708;SDS011;54933;51.908;7.730;2023-02-01T11:11:23;2.03;;;0.90;;
13708;SDS011;54933;51.908;7.730;2023-02-01T11:13:58;4.00;;;1.00;;
13708;SDS011;54933;51.908;7.730;2023-02-01T11:16:37;2.87;;;1.00;;
13708;SDS011;54933;51.908;7.730;2023-02-01T11:19:04;1.53;;;1.20;;
13708;SDS011;54933;51.908;7.730;2023-02-01T11:21:30;4.17;;;0.87;;
13708;SDS011;54933;51.908;7.730;2023-02-01T11:24:00;3.20;;;0.80;;
13708;SDS011;54933;51.908;7.730;2023-02-01T11:26:28;1.27;;;0.90;;
13708;SDS011;54933;51.908;7.730;2023-02-01T11:29:04;2.70;;;1.00;;
13708;SDS011;54933;51.908;7.730;2023-02-01T11:31:35;1.83;;;0.83;;
13708;SDS011;54933;51.908;7.730;2023-02-01T11:34:22;3.07;;;1.03;;
13708;SDS011;54933;51.908;7.730;2023-02-01T11:36:48;4.27;;;0.87;;
13708;SDS011;54933;51.908;7.730;2023-02-01T11:45:16;1.57;;;0.70;;
13708;SDS011;54933;51.908;7.730;2023-02-01T11:47:51;3.83;;;0.80;;
13708;SDS011;54933;51.908;7.730;2023-02-01T11:50:28;3.90;;;0.83;;
13708;SDS011;54933;51.908;7.730;2023-02-01T11:53:09;1.50;;;0.87;;
13708;SDS011;54933;51.908;7.730;2023-02-01T12:04:36;3.83;;;0.93;;
13708;SDS011;54933;51.908;7.730;2023-02-01T12:07:24;2.67;;;0.90;;
13708;SDS011;54933;51.908;7.730;2023-02-01T12:13:03;2.07;;;0.77;;
13708;SDS011;54933;51.908;7.730;2023-02-01T12:15:43;2.23;;;1.00;;
13708;SDS011;54933;51.908;7.730;2023-02-01T12:18:32;7.40;;;1.23;;
13708;SDS011;54933;51.908;7.730;2023-02-01T12:27:25;5.57;;;1.70;;
13708;SDS011;54933;51.908;7.730;2023-02-01T12:35:23;4.83;;;1.27;;
13708;SDS011;54933;51.908;7.730;2023-02-01T12:38:29;2.93;;;0.97;;
13708;SDS011;54933;51.908;7.730;2023-02-01T12:43:59;3.10;;;1.37;;
13708;SDS011;54933;51.908;7.730;2023-02-01T12:46:46;25.60;;;2.00;;
13708;SDS011;54933;51.908;7.730;2023-02-01T12:49:22;11.23;;;1.53;;
13708;SDS011;54933;51.908;7.730;2023-02-01T12:51:58;8.47;;;1.80;;
13708;SDS011;54933;51.908;7.730;2023-02-01T12:54:32;7.70;;;1.63;;
13708;SDS011;54933;51.908;7.730;2023-02-01T12:57:08;18.17;;;3.00;;
13708;SDS011;54933;51.908;7.730;2023-02-01T12:59:38;215.23;;;13.57;;
13708;SDS011;54933;51.908;7.730;2023-02-01T13:02:42;38.23;;;4.00;;
13708;SDS011;54933;51.908;7.730;2023-02-01T13:05:53;26.43;;;3.90;;
13708;SDS011;54933;51.908;7.730;2023-02-01T13:08:21;17.67;;;2.67;;
13708;SDS011;54933;51.908;7.730;2023-02-01T13:13:42;22.23;;;3.27;;
13708;SDS011;54933;51.908;7.730;2023-02-01T13:16:17;19.17;;;4.87;;
13708;SDS011;54933;51.908;7.730;2023-02-01T13:18:49;85.13;;;7.10;;
13708;SDS011;54933;51.908;7.730;2023-02-01T13:21:18;20.00;;;3.50;;
13708;SDS011;54933;51.908;7.730;2023-02-01T13:23:48;18.67;;;4.17;;
13708;SDS011;54933;51.908;7.730;2023-02-01T13:26:16;22.30;;;4.57;;
13708;SDS011;54933;51.908;7.730;2023-02-01T13:28:43;25.70;;;3.87;;
13708;SDS011;54933;51.908;7.730;2023-02-01T13:42:49;11.83;;;2.30;;
13708;SDS011;54933;51.908;7.730;2023-02-01T13:45:18;8.53;;;3.10;;
13708;SDS011;54933;51.908;7.730;2023-02-01T13:47:47;282.77;;;22.37;;
13708;SDS011;54933;51.908;7.730;2023-02-01T13:50:28;127.57;;;12.60;;
13708;SDS011;54933;51.908;7.730;2023-02-01T13:55:55;52.03;;;5.40;;
13708;SDS011;54933;51.908;7.730;2023-02-01T13:58:30;68.80;;;6.83;;
13708;SDS011;54933;51.908;7.730;2023-02-01T14:03:54;39.13;;;4.70;;
13708;SDS011;54933;51.908;7.730;2023-02-01T14:11:34;45.13;;;4.67;;
13708;SDS011;54933;51.908;7.730;2023-02-01T14:14:37;36.60;;;4.27;;
13708;SDS011;54933;51.908;7.730;2023-02-01T14:21:50;23.00;;;3.10;;
13708;SDS011;54933;51.908;7.730;2023-02-01T14:24:25;70.60;;;7.10;;
13708;SDS011;54933;51.908;7.730;2023-02-01T14:27:17;56.43;;;5.30;;
13708;SDS011;54933;51.908;7.730;2023-02-01T14:29:53;30.80;;;4.07;;
13708;SDS011;54933;51.908;7.730;2023-02-01T14:32:25;22.90;;;4.37;;
13708;SDS011;54933;51.908;7.730;2023-02-01T14:35:00;23.93;;;3.93;;
13708;SDS011;54933;51.908;7.730;2023-02-01T14:37:31;15.13;;;2.53;;
13708;SDS011;54933;51.908;7.730;2023-02-01T14:47:48;13.67;;;1.57;;
13708;SDS011;54933;51.908;7.730;2023-02-01T14:55:43;22.17;;;3.13;;
13708;SDS011;54933;51.908;7.730;2023-02-01T14:58:15;13.63;;;2.10;;
13708;SDS011;54933;51.908;7.730;2023-02-01T15:00:51;6.20;;;1.57;;
13708;SDS011;54933;51.908;7.730;2023-02-01T15:06:13;8.73;;;2.27;;
13708;SDS011;54933;51.908;7.730;2023-02-01T15:11:53;9.53;;;1.67;;
13708;SDS011;54933;51.908;7.730;2023-02-01T15:14:43;6.57;;;1.50;;
13708;SDS011;54933;51.908;7.730;2023-02-01T15:17:22;7.40;;;1.90;;
13708;SDS011;54933;51.908;7.730;2023-02-01T15:19:58;6.13;;;1.53;;
13708;SDS011;54933;51.908;7.730;2023-02-01T15:22:26;4.67;;;1.60;;
13708;SDS011;54933;51.908;7.730;2023-02-01T15:24:53;5.83;;;1.33;;
13708;SDS011;54933;51.908;7.730;2023-02-01T15:27:19;9.37;;;1.30;;
13708;SDS011;54933;51.908;7.730;2023-02-01T15:29:45;5.20;;;1.13;;
13708;SDS011;54933;51.908;7.730;2023-02-01T15:34:54;2.70;;;1.30;;
13708;SDS011;54933;51.908;7.730;2023-02-01T15:37:20;4.20;;;0.90;;
13708;SDS011;54933;51.908;7.730;2023-02-01T15:40:18;5.60;;;1.00;;
13708;SDS011;54933;51.908;7.730;2023-02-01T15:42:51;3.37;;;0.80;;
13708;SDS011;54933;51.908;7.730;2023-02-01T15:45:22;7.60;;;1.37;;
13708;SDS011;54933;51.908;7.730;2023-02-01T15:47:51;1.90;;;1.10;;
13708;SDS011;54933;51.908;7.730;2023-02-01T15:50:19;4.47;;;1.47;;
13708;SDS011;54933;51.908;7.730;2023-02-01T15:52:46;3.27;;;1.00;;
13708;SDS011;54933;51.908;7.730;2023-02-01T15:58:06;4.87;;;0.93;;
13708;SDS011;54933;51.908;7.730;2023-02-01T16:00:47;2.13;;;1.20;;
13708;SDS011;54933;51.908;7.730;2023-02-01T16:06:07;6.67;;;1.00;;
13708;SDS011;54933;51.908;7.730;2023-02-01T16:08:49;2.27;;;0.80;;
13708;SDS011;54933;51.908;7.730;2023-02-01T16:11:22;3.50;;;0.70;;
13708;SDS011;54933;51.908;7.730;2023-02-01T16:13:53;3.60;;;0.90;;
13708;SDS011;54933;51.908;7.730;2023-02-01T16:16:18;3.90;;;1.10;;
13708;SDS011;54933;51.908;7.730;2023-02-01T16:18:43;1.27;;;0.70;;
13708;SDS011;54933;51.908;7.730;2023-02-01T16:21:09;65.43;;;7.63;;
13708;SDS011;54933;51.908;7.730;2023-02-01T16:23:35;13.77;;;2.10;;
13708;SDS011;54933;51.908;7.730;2023-02-01T16:26:01;17.27;;;1.97;;
13708;SDS011;54933;51.908;7.730;2023-02-01T16:28:27;8.70;;;1.53;;
13708;SDS011;54933;51.908;7.730;2023-02-01T16:30:52;14.03;;;2.20;;
13708;SDS011;54933;51.908;7.730;2023-02-01T16:33:18;13.30;;;2.20;;
13708;SDS011;54933;51.908;7.730;2023-02-01T16:35:46;10.27;;;1.90;;
13708;SDS011;54933;51.908;7.730;2023-02-01T16:38:14;14.23;;;1.53;;
13708;SDS011;54933;51.908;7.730;2023-02-01T16:40:43;6.63;;;1.40;;
13708;SDS011;54933;51.908;7.730;2023-02-01T16:43:16;32.27;;;3.03;;
13708;SDS011;54933;51.908;7.730;2023-02-01T16:45:43;17.10;;;3.33;;
13708;SDS011;54933;51.908;7.730;2023-02-01T16:48:35;16.33;;;1.93;;
13708;SDS011;54933;51.908;7.730;2023-02-01T16:51:04;16.63;;;2.00;;
13708;SDS011;54933;51.908;7.730;2023-02-01T16:53:36;15.50;;;2.03;;
13708;SDS011;54933;51.908;7.730;2023-02-01T16:56:04;16.33;;;1.83;;
13708;SDS011;54933;51.908;7.730;2023-02-01T16:58:44;12.17;;;1.53;;
13708;SDS011;54933;51.908;7.730;2023-02-01T17:01:10;16.30;;;2.47;;
13708;SDS011;54933;51.908;7.730;2023-02-01T17:03:40;6.23;;;2.10;;
13708;SDS011;54933;51.908;7.730;2023-02-01T17:06:08;11.30;;;1.60;;
13708;SDS011;54933;51.908;7.730;2023-02-01T17:08:36;13.30;;;1.73;;
13708;SDS011;54933;51.908;7.730;2023-02-01T17:11:05;7.40;;;1.30;;
13708;SDS011;54933;51.908;7.730;2023-02-01T17:13:31;8.10;;;1.43;;
13708;SDS011;54933;51.908;7.730;2023-02-01T17:15:58;6.57;;;1.13;;
13708;SDS011;54933;51.908;7.730;2023-02-01T17:18:26;9.13;;;1.13;;
13708;SDS011;54933;51.908;7.730;2023-02-01T17:20:55;5.23;;;1.10;;
13708;SDS011;54933;51.908;7.730;2023-02-01T17:23:24;7.53;;;1.30;;
13708;SDS011;54933;51.908;7.730;2023-02-01T17:25:51;11.17;;;1.90;;
13708;SDS011;54933;51.908;7.730;2023-02-01T17:28:16;4.33;;;1.23;;
13708;SDS011;54933;51.908;7.730;2023-02-01T17:30:42;7.03;;;1.17;;